Chiricana — 3EKU3 — position and weather

sailwx.info

Track history (hours):
 
Tides and Currents Weather Stations Pressure Air Temp Water Temp Dewpoint Dewpoint Depression Visibility Wind Speed Wind Dir Waves Ship Positions

Chiricana

Last reported at 2014-Jul-28 21:33 UTC. Time now 2014-Jul-28 22:32 UTC.
Position N 37°07' E 003°55'.

Length 300 m; draft 12.6 m.

Type: Ship (hazmat cat B). MMSI: 372829000.

Date/timePositionNaut miles runAvg speedWind from/ knotsBaromVisibWave heightAir tempDewpointWater temp
2014-Jul-28 21:33N 37°07' E 003°55'1717.2
2014-Jul-28 20:33N 37°06' E 003°33'1717.1
2014-Jul-28 19:33N 37°05' E 003°12'1817.5
2014-Jul-28 18:33N 37°03' E 002°50'1816.9
2014-Jul-28 17:29N 36°59' E 002°28'5416.8
2014-Jul-28 14:16N 36°51' E 001°21'1516.3
2014-Jul-28 13:20N 36°48' E 001°02'4816.8
2014-Jul-28 10:28N 36°41' E 000°03'1917.6
2014-Jul-28 09:24N 36°37' W 000°20'2421.3
2014-Jul-28 08:18N 36°34' W 000°49'2621.2
2014-Jul-28 07:04N 36°30' W 001°21'1220.1
2014-Jul-28 06:28N 36°28' W 001°36'1617.1
2014-Jul-28 05:33N 36°25' W 001°55'170 6.4
2014-Jul-27 03:05N 36°02' W 005°24'611.5
2014-Jul-27 02:33N 35°58' W 005°29'5313.3
2014-Jul-26 22:33N 35°54' W 006°35'1313.2
2014-Jul-26 21:33N 35°54' W 006°51'1313.3
2014-Jul-26 20:33N 35°54' W 007°07'1313.4
2014-Jul-26 19:33N 35°53' W 007°24'1313.0
2014-Jul-26 18:33N 35°50' W 007°39'1 1.4
2014-Jul-26 17:29N 35°51' W 007°41'3 0.9
2014-Jul-26 14:31N 35°53' W 007°44'1 1.2
2014-Jul-26 13:28N 35°53' W 007°45'2 1.3
2014-Jul-26 12:16N 35°53' W 007°47'28 3.6
2014-Jul-26 04:33N 35°54' W 008°22'1413.3
2014-Jul-26 03:32N 35°55' W 008°38'1713.4
2014-Jul-26 02:14N 36°00' W 008°59'913.5
2014-Jul-26 01:33N 36°03' W 009°09'1513.5
2014-Jul-26 00:25N 36°09' W 009°27'1813.7
2014-Jul-25 23:05N 36°14' W 009°49'1013.5
2014-Jul-25 22:19N 36°18' W 010°01'1213.3
2014-Jul-25 21:24N 36°22' W 010°15'1312.9
2014-Jul-25 20:25N 36°26' W 010°30'1113.1
2014-Jul-25 19:33N 36°29' W 010°43'63314.4
2014-Jul-23 23:34N 39°04' W 023°41'1615.6
2014-Jul-23 22:34N 39°07' W 024°00'1515.3
2014-Jul-23 21:33N 39°10' W 024°20'1515.2
2014-Jul-23 20:34N 39°12' W 024°39'1515.3
2014-Jul-23 19:33N 39°15' W 024°58'1515.2
2014-Jul-23 18:33N 39°18' W 025°18'1514.9
2014-Jul-23 17:34N 39°20' W 025°37'3115.2
2014-Jul-23 15:30N 39°25' W 026°17'1717.2
2014-Jul-23 14:32N 39°28' W 026°38'1717.1
2014-Jul-23 13:33N 39°30' W 026°59'1717.0
2014-Jul-23 12:32N 39°33' W 027°22'1717.0
2014-Jul-23 11:33N 39°35' W 027°43'1717.1
2014-Jul-23 10:33N 39°38' W 028°05'1717.2
2014-Jul-23 09:33N 39°40' W 028°27'1717.2
2014-Jul-23 08:34N 39°43' W 028°49'1717.1
2014-Jul-23 07:34N 39°45' W 029°11'1817.2
2014-Jul-23 06:31N 39°47' W 029°34'1617.0
2014-Jul-23 05:34N 39°50' W 029°55'2017.1
2014-Jul-23 04:24N 39°52' W 030°21'1617.3
2014-Jul-23 03:30N 39°54' W 030°41'1617.1
2014-Jul-23 02:33N 39°56' W 031°02'1717.1
2014-Jul-23 01:33N 39°58' W 031°24'1717.0
2014-Jul-23 00:33N 39°60' W 031°46'2117.1
2014-Jul-22 23:20N 40°01' W 032°13'3517.2
2014-Jul-22 21:18N 40°03' W 032°59'  
2014-Jul-20 12:00N 38°42' W 054°30'   270 / 171025.0 1.1 2.027.0 22.0
Track history (hours):
 
Tides and Currents Weather Stations Pressure Air Temp Water Temp Dewpoint Dewpoint Depression Visibility Wind Speed Wind Dir Waves Ship Positions

Chiricana

Last reported at 2014-Jul-28 21:33 UTC. Time now 2014-Jul-28 22:32 UTC.
Position N 37°07' E 003°55'.

Length 300 m; draft 12.6 m.

Type: Ship (hazmat cat B). MMSI: 372829000.

Date/timePositionNaut miles runAvg speedWind from/ knotsBaromVisibWave heightAir tempDewpointWater temp
2014-Jul-28 21:33N 37°07' E 003°55'1717.2
2014-Jul-28 20:33N 37°06' E 003°33'1717.1
2014-Jul-28 19:33N 37°05' E 003°12'1817.5
2014-Jul-28 18:33N 37°03' E 002°50'1816.9
2014-Jul-28 17:29N 36°59' E 002°28'5416.8
2014-Jul-28 14:16N 36°51' E 001°21'1516.3
2014-Jul-28 13:20N 36°48' E 001°02'4816.8
2014-Jul-28 10:28N 36°41' E 000°03'1917.6
2014-Jul-28 09:24N 36°37' W 000°20'2421.3
2014-Jul-28 08:18N 36°34' W 000°49'2621.2
2014-Jul-28 07:04N 36°30' W 001°21'1220.1
2014-Jul-28 06:28N 36°28' W 001°36'1617.1
2014-Jul-28 05:33N 36°25' W 001°55'170 6.4
2014-Jul-27 03:05N 36°02' W 005°24'611.5
2014-Jul-27 02:33N 35°58' W 005°29'5313.3
2014-Jul-26 22:33N 35°54' W 006°35'1313.2
2014-Jul-26 21:33N 35°54' W 006°51'1313.3
2014-Jul-26 20:33N 35°54' W 007°07'1313.4
2014-Jul-26 19:33N 35°53' W 007°24'1313.0
2014-Jul-26 18:33N 35°50' W 007°39'1 1.4
2014-Jul-26 17:29N 35°51' W 007°41'3 0.9
2014-Jul-26 14:31N 35°53' W 007°44'1 1.2
2014-Jul-26 13:28N 35°53' W 007°45'2 1.3
2014-Jul-26 12:16N 35°53' W 007°47'28 3.6
2014-Jul-26 04:33N 35°54' W 008°22'1413.3
2014-Jul-26 03:32N 35°55' W 008°38'1713.4
2014-Jul-26 02:14N 36°00' W 008°59'913.5
2014-Jul-26 01:33N 36°03' W 009°09'1513.5
2014-Jul-26 00:25N 36°09' W 009°27'1813.7
2014-Jul-25 23:05N 36°14' W 009°49'1013.5
2014-Jul-25 22:19N 36°18' W 010°01'1213.3
2014-Jul-25 21:24N 36°22' W 010°15'1312.9
2014-Jul-25 20:25N 36°26' W 010°30'1113.1
2014-Jul-25 19:33N 36°29' W 010°43'63314.4
2014-Jul-23 23:34N 39°04' W 023°41'1615.6
2014-Jul-23 22:34N 39°07' W 024°00'1515.3
2014-Jul-23 21:33N 39°10' W 024°20'1515.2
2014-Jul-23 20:34N 39°12' W 024°39'1515.3
2014-Jul-23 19:33N 39°15' W 024°58'1515.2
2014-Jul-23 18:33N 39°18' W 025°18'1514.9
2014-Jul-23 17:34N 39°20' W 025°37'3115.2
2014-Jul-23 15:30N 39°25' W 026°17'1717.2
2014-Jul-23 14:32N 39°28' W 026°38'1717.1
2014-Jul-23 13:33N 39°30' W 026°59'1717.0
2014-Jul-23 12:32N 39°33' W 027°22'1717.0
2014-Jul-23 11:33N 39°35' W 027°43'1717.1
2014-Jul-23 10:33N 39°38' W 028°05'1717.2
2014-Jul-23 09:33N 39°40' W 028°27'1717.2
2014-Jul-23 08:34N 39°43' W 028°49'1717.1
2014-Jul-23 07:34N 39°45' W 029°11'1817.2
2014-Jul-23 06:31N 39°47' W 029°34'1617.0
2014-Jul-23 05:34N 39°50' W 029°55'2017.1
2014-Jul-23 04:24N 39°52' W 030°21'1617.3
2014-Jul-23 03:30N 39°54' W 030°41'1617.1
2014-Jul-23 02:33N 39°56' W 031°02'1717.1
2014-Jul-23 01:33N 39°58' W 031°24'1717.0
2014-Jul-23 00:33N 39°60' W 031°46'2117.1
2014-Jul-22 23:20N 40°01' W 032°13'3517.2
2014-Jul-22 21:18N 40°03' W 032°59'  
2014-Jul-20 12:00N 38°42' W 054°30'   270 / 171025.0 1.1 2.027.0 22.0

Dump ship's entire track history